sensor_id;sensor_type;location;lat;lon;timestamp;temperature;humidity
48162;DHT22;33950;48.154;16.316;2024-01-30T00:00:10;2.90;99.90
48162;DHT22;33950;48.154;16.316;2024-01-30T00:02:35;2.90;99.90
48162;DHT22;33950;48.154;16.316;2024-01-30T00:05:01;2.80;99.90
48162;DHT22;33950;48.154;16.316;2024-01-30T00:07:28;2.80;99.90
48162;DHT22;33950;48.154;16.316;2024-01-30T00:09:54;2.80;99.90
48162;DHT22;33950;48.154;16.316;2024-01-30T00:12:20;2.80;99.90
48162;DHT22;33950;48.154;16.316;2024-01-30T00:14:47;2.80;99.90
48162;DHT22;33950;48.154;16.316;2024-01-30T00:17:13;2.80;99.90
48162;DHT22;33950;48.154;16.316;2024-01-30T00:19:40;2.70;99.90
48162;DHT22;33950;48.154;16.316;2024-01-30T00:22:05;2.70;99.90
48162;DHT22;33950;48.154;16.316;2024-01-30T00:24:31;2.70;99.90
48162;DHT22;33950;48.154;16.316;2024-01-30T00:26:56;2.80;99.90
48162;DHT22;33950;48.154;16.316;2024-01-30T00:29:22;2.80;99.90
48162;DHT22;33950;48.154;16.316;2024-01-30T00:31:49;2.80;99.90
48162;DHT22;33950;48.154;16.316;2024-01-30T00:34:15;2.70;99.90
48162;DHT22;33950;48.154;16.316;2024-01-30T00:36:40;2.80;99.90
48162;DHT22;33950;48.154;16.316;2024-01-30T00:39:06;2.80;99.90
48162;DHT22;33950;48.154;16.316;2024-01-30T00:41:34;2.80;99.90
48162;DHT22;33950;48.154;16.316;2024-01-30T00:44:00;2.80;99.90
48162;DHT22;33950;48.154;16.316;2024-01-30T00:46:25;2.80;99.90
48162;DHT22;33950;48.154;16.316;2024-01-30T00:48:52;2.70;99.90
48162;DHT22;33950;48.154;16.316;2024-01-30T00:51:18;2.70;99.90
48162;DHT22;33950;48.154;16.316;2024-01-30T00:53:43;2.80;99.90
48162;DHT22;33950;48.154;16.316;2024-01-30T00:56:09;2.70;99.90
48162;DHT22;33950;48.154;16.316;2024-01-30T00:58:34;2.70;99.90
48162;DHT22;33950;48.154;16.316;2024-01-30T01:01:00;2.70;99.90
48162;DHT22;33950;48.154;16.316;2024-01-30T01:03:26;2.70;99.90
48162;DHT22;33950;48.154;16.316;2024-01-30T01:05:53;2.70;99.90
48162;DHT22;33950;48.154;16.316;2024-01-30T01:08:18;2.70;99.90
48162;DHT22;33950;48.154;16.316;2024-01-30T01:10:44;2.60;99.90
48162;DHT22;33950;48.154;16.316;2024-01-30T01:13:09;2.60;99.90
48162;DHT22;33950;48.154;16.316;2024-01-30T01:15:35;2.60;99.90
48162;DHT22;33950;48.154;16.316;2024-01-30T01:18:00;2.60;99.90
48162;DHT22;33950;48.154;16.316;2024-01-30T01:20:26;2.50;99.90
48162;DHT22;33950;48.154;16.316;2024-01-30T01:22:53;2.50;99.90
48162;DHT22;33950;48.154;16.316;2024-01-30T01:25:19;2.60;99.90
48162;DHT22;33950;48.154;16.316;2024-01-30T01:27:45;2.60;99.90
48162;DHT22;33950;48.154;16.316;2024-01-30T01:30:16;2.50;99.90
48162;DHT22;33950;48.154;16.316;2024-01-30T01:32:47;2.60;99.90
48162;DHT22;33950;48.154;16.316;2024-01-30T01:35:20;2.50;99.90
48162;DHT22;33950;48.154;16.316;2024-01-30T01:37:45;2.60;99.90
48162;DHT22;33950;48.154;16.316;2024-01-30T01:40:12;2.50;99.90
48162;DHT22;33950;48.154;16.316;2024-01-30T01:42:38;2.50;99.90
48162;DHT22;33950;48.154;16.316;2024-01-30T01:45:04;2.50;99.90
48162;DHT22;33950;48.154;16.316;2024-01-30T01:47:31;2.50;99.90
48162;DHT22;33950;48.154;16.316;2024-01-30T01:49:56;2.50;99.90
48162;DHT22;33950;48.154;16.316;2024-01-30T01:52:22;2.50;99.90
48162;DHT22;33950;48.154;16.316;2024-01-30T01:54:47;2.60;99.90
48162;DHT22;33950;48.154;16.316;2024-01-30T01:57:14;2.60;99.90
48162;DHT22;33950;48.154;16.316;2024-01-30T01:59:40;2.60;99.90
48162;DHT22;33950;48.154;16.316;2024-01-30T02:02:06;2.60;99.90
48162;DHT22;33950;48.154;16.316;2024-01-30T02:04:35;2.60;99.90
48162;DHT22;33950;48.154;16.316;2024-01-30T02:07:00;2.60;99.90
48162;DHT22;33950;48.154;16.316;2024-01-30T02:09:26;2.60;99.90
48162;DHT22;33950;48.154;16.316;2024-01-30T02:11:51;2.60;99.90
48162;DHT22;33950;48.154;16.316;2024-01-30T02:14:18;2.60;99.90
48162;DHT22;33950;48.154;16.316;2024-01-30T02:16:44;2.60;99.90
48162;DHT22;33950;48.154;16.316;2024-01-30T02:19:10;2.60;99.90
48162;DHT22;33950;48.154;16.316;2024-01-30T02:21:37;2.60;99.90
48162;DHT22;33950;48.154;16.316;2024-01-30T02:24:03;2.60;99.90
48162;DHT22;33950;48.154;16.316;2024-01-30T02:26:28;2.60;99.90
48162;DHT22;33950;48.154;16.316;2024-01-30T02:28:54;2.60;99.90
48162;DHT22;33950;48.154;16.316;2024-01-30T02:31:20;2.60;99.90
48162;DHT22;33950;48.154;16.316;2024-01-30T02:33:45;2.60;99.90
48162;DHT22;33950;48.154;16.316;2024-01-30T02:36:11;2.60;99.90
48162;DHT22;33950;48.154;16.316;2024-01-30T02:38:38;2.60;99.90
48162;DHT22;33950;48.154;16.316;2024-01-30T02:41:03;2.60;99.90
48162;DHT22;33950;48.154;16.316;2024-01-30T02:43:29;2.60;99.90
48162;DHT22;33950;48.154;16.316;2024-01-30T02:45:55;2.50;99.90
48162;DHT22;33950;48.154;16.316;2024-01-30T02:48:20;2.40;99.90
48162;DHT22;33950;48.154;16.316;2024-01-30T02:50:46;2.40;99.90
48162;DHT22;33950;48.154;16.316;2024-01-30T02:53:12;2.40;99.90
48162;DHT22;33950;48.154;16.316;2024-01-30T02:55:39;2.40;99.90
48162;DHT22;33950;48.154;16.316;2024-01-30T02:58:04;2.40;99.90
48162;DHT22;33950;48.154;16.316;2024-01-30T03:00:30;2.40;99.90
48162;DHT22;33950;48.154;16.316;2024-01-30T03:02:56;2.40;99.90
48162;DHT22;33950;48.154;16.316;2024-01-30T03:05:21;2.40;99.90
48162;DHT22;33950;48.154;16.316;2024-01-30T03:07:47;2.30;99.90
48162;DHT22;33950;48.154;16.316;2024-01-30T03:10:12;2.30;99.90
48162;DHT22;33950;48.154;16.316;2024-01-30T03:12:39;2.20;99.90
48162;DHT22;33950;48.154;16.316;2024-01-30T03:15:05;2.20;99.90
48162;DHT22;33950;48.154;16.316;2024-01-30T03:17:31;2.10;99.90
48162;DHT22;33950;48.154;16.316;2024-01-30T03:19:57;2.10;99.90
48162;DHT22;33950;48.154;16.316;2024-01-30T03:22:23;2.10;99.90
48162;DHT22;33950;48.154;16.316;2024-01-30T03:24:49;2.10;99.90
48162;DHT22;33950;48.154;16.316;2024-01-30T03:27:14;2.10;99.90
48162;DHT22;33950;48.154;16.316;2024-01-30T03:29:41;2.10;99.90
48162;DHT22;33950;48.154;16.316;2024-01-30T03:32:07;2.10;99.90
48162;DHT22;33950;48.154;16.316;2024-01-30T03:34:33;2.10;99.90
48162;DHT22;33950;48.154;16.316;2024-01-30T03:36:58;2.10;99.90
48162;DHT22;33950;48.154;16.316;2024-01-30T03:39:24;2.10;99.90
48162;DHT22;33950;48.154;16.316;2024-01-30T03:41:50;2.20;99.90
48162;DHT22;33950;48.154;16.316;2024-01-30T03:44:15;2.10;99.90
48162;DHT22;33950;48.154;16.316;2024-01-30T03:46:42;2.20;99.90
48162;DHT22;33950;48.154;16.316;2024-01-30T03:49:09;2.20;99.90
48162;DHT22;33950;48.154;16.316;2024-01-30T03:51:34;2.20;99.90
48162;DHT22;33950;48.154;16.316;2024-01-30T03:54:00;2.20;99.90
48162;DHT22;33950;48.154;16.316;2024-01-30T03:56:26;2.20;99.90
48162;DHT22;33950;48.154;16.316;2024-01-30T03:58:51;2.30;99.90
48162;DHT22;33950;48.154;16.316;2024-01-30T04:01:17;2.30;99.90
48162;DHT22;33950;48.154;16.316;2024-01-30T04:03:44;2.20;99.90
48162;DHT22;33950;48.154;16.316;2024-01-30T04:06:10;2.30;99.90
48162;DHT22;33950;48.154;16.316;2024-01-30T04:08:36;2.30;99.90
48162;DHT22;33950;48.154;16.316;2024-01-30T04:11:03;2.30;99.90
48162;DHT22;33950;48.154;16.316;2024-01-30T04:13:28;2.30;99.90
48162;DHT22;33950;48.154;16.316;2024-01-30T04:15:54;2.30;99.90
48162;DHT22;33950;48.154;16.316;2024-01-30T04:18:20;2.40;99.90
48162;DHT22;33950;48.154;16.316;2024-01-30T04:20:47;2.30;99.90
48162;DHT22;33950;48.154;16.316;2024-01-30T04:23:13;2.30;99.90
48162;DHT22;33950;48.154;16.316;2024-01-30T04:25:38;2.30;99.90
48162;DHT22;33950;48.154;16.316;2024-01-30T04:28:04;2.30;99.90
48162;DHT22;33950;48.154;16.316;2024-01-30T04:30:30;2.30;99.90
48162;DHT22;33950;48.154;16.316;2024-01-30T04:32:56;2.20;99.90
48162;DHT22;33950;48.154;16.316;2024-01-30T04:35:21;2.20;99.90
48162;DHT22;33950;48.154;16.316;2024-01-30T04:37:52;2.10;99.90
48162;DHT22;33950;48.154;16.316;2024-01-30T04:40:18;2.10;99.90
48162;DHT22;33950;48.154;16.316;2024-01-30T04:42:44;2.10;99.90
48162;DHT22;33950;48.154;16.316;2024-01-30T04:45:09;2.10;99.90
48162;DHT22;33950;48.154;16.316;2024-01-30T04:47:35;2.10;99.90
48162;DHT22;33950;48.154;16.316;2024-01-30T04:50:01;2.10;99.90
48162;DHT22;33950;48.154;16.316;2024-01-30T04:52:26;2.10;99.90
48162;DHT22;33950;48.154;16.316;2024-01-30T04:54:53;2.10;99.90
48162;DHT22;33950;48.154;16.316;2024-01-30T04:57:19;2.10;99.90
48162;DHT22;33950;48.154;16.316;2024-01-30T04:59:44;2.10;99.90
48162;DHT22;33950;48.154;16.316;2024-01-30T05:02:10;2.10;99.90
48162;DHT22;33950;48.154;16.316;2024-01-30T05:04:36;2.10;99.90
48162;DHT22;33950;48.154;16.316;2024-01-30T05:07:01;2.10;99.90
48162;DHT22;33950;48.154;16.316;2024-01-30T05:09:27;2.10;99.90
48162;DHT22;33950;48.154;16.316;2024-01-30T05:11:54;2.10;99.90
48162;DHT22;33950;48.154;16.316;2024-01-30T05:14:19;2.10;99.90
48162;DHT22;33950;48.154;16.316;2024-01-30T05:16:45;2.10;99.90
48162;DHT22;33950;48.154;16.316;2024-01-30T05:19:12;2.00;99.90
48162;DHT22;33950;48.154;16.316;2024-01-30T05:21:38;2.00;99.90
48162;DHT22;33950;48.154;16.316;2024-01-30T05:24:03;2.10;99.90
48162;DHT22;33950;48.154;16.316;2024-01-30T05:26:29;2.10;99.90
48162;DHT22;33950;48.154;16.316;2024-01-30T05:28:56;2.00;99.90
48162;DHT22;33950;48.154;16.316;2024-01-30T05:31:22;2.00;99.90
48162;DHT22;33950;48.154;16.316;2024-01-30T05:33:48;2.00;99.90
48162;DHT22;33950;48.154;16.316;2024-01-30T05:36:14;2.00;99.90
48162;DHT22;33950;48.154;16.316;2024-01-30T05:38:39;2.00;99.90
48162;DHT22;33950;48.154;16.316;2024-01-30T05:41:05;2.00;99.90
48162;DHT22;33950;48.154;16.316;2024-01-30T05:43:31;2.00;99.90
48162;DHT22;33950;48.154;16.316;2024-01-30T05:45:58;2.00;99.90
48162;DHT22;33950;48.154;16.316;2024-01-30T05:48:23;1.90;99.90
48162;DHT22;33950;48.154;16.316;2024-01-30T05:50:49;1.90;99.90
48162;DHT22;33950;48.154;16.316;2024-01-30T05:53:15;1.90;99.90
48162;DHT22;33950;48.154;16.316;2024-01-30T05:55:40;1.90;99.90
48162;DHT22;33950;48.154;16.316;2024-01-30T05:58:06;2.00;99.90
48162;DHT22;33950;48.154;16.316;2024-01-30T06:00:32;2.00;99.90
48162;DHT22;33950;48.154;16.316;2024-01-30T06:02:59;2.10;99.90
48162;DHT22;33950;48.154;16.316;2024-01-30T06:05:24;2.10;99.90
48162;DHT22;33950;48.154;16.316;2024-01-30T06:07:50;2.10;99.90
48162;DHT22;33950;48.154;16.316;2024-01-30T06:10:15;2.00;99.90
48162;DHT22;33950;48.154;16.316;2024-01-30T06:12:41;2.00;99.90
48162;DHT22;33950;48.154;16.316;2024-01-30T06:15:07;2.00;99.90
48162;DHT22;33950;48.154;16.316;2024-01-30T06:17:33;1.90;99.90
48162;DHT22;33950;48.154;16.316;2024-01-30T06:20:00;1.90;99.90
48162;DHT22;33950;48.154;16.316;2024-01-30T06:22:25;2.00;99.90
48162;DHT22;33950;48.154;16.316;2024-01-30T06:24:51;2.00;99.90
48162;DHT22;33950;48.154;16.316;2024-01-30T06:27:16;2.00;99.90
48162;DHT22;33950;48.154;16.316;2024-01-30T06:29:43;2.00;99.90
48162;DHT22;33950;48.154;16.316;2024-01-30T06:32:08;2.00;99.90
48162;DHT22;33950;48.154;16.316;2024-01-30T06:34:34;2.00;99.90
48162;DHT22;33950;48.154;16.316;2024-01-30T06:37:01;1.90;99.90
48162;DHT22;33950;48.154;16.316;2024-01-30T06:39:26;1.90;99.90
48162;DHT22;33950;48.154;16.316;2024-01-30T06:41:52;1.90;99.90
48162;DHT22;33950;48.154;16.316;2024-01-30T06:44:18;1.90;99.90
48162;DHT22;33950;48.154;16.316;2024-01-30T06:46:43;1.90;99.90
48162;DHT22;33950;48.154;16.316;2024-01-30T06:49:09;1.90;99.90
48162;DHT22;33950;48.154;16.316;2024-01-30T06:51:34;1.90;99.90
48162;DHT22;33950;48.154;16.316;2024-01-30T06:54:01;1.80;99.90
48162;DHT22;33950;48.154;16.316;2024-01-30T06:56:27;1.80;99.90
48162;DHT22;33950;48.154;16.316;2024-01-30T06:58:53;1.80;99.90
48162;DHT22;33950;48.154;16.316;2024-01-30T07:01:18;1.80;99.90
48162;DHT22;33950;48.154;16.316;2024-01-30T07:03:44;1.80;99.90
48162;DHT22;33950;48.154;16.316;2024-01-30T07:06:10;1.90;99.90
48162;DHT22;33950;48.154;16.316;2024-01-30T07:08:36;1.90;99.90
48162;DHT22;33950;48.154;16.316;2024-01-30T07:11:03;1.90;99.90
48162;DHT22;33950;48.154;16.316;2024-01-30T07:13:29;1.90;99.90
48162;DHT22;33950;48.154;16.316;2024-01-30T07:15:55;1.90;99.90
48162;DHT22;33950;48.154;16.316;2024-01-30T07:18:20;1.90;99.90
48162;DHT22;33950;48.154;16.316;2024-01-30T07:20:46;2.00;99.90
48162;DHT22;33950;48.154;16.316;2024-01-30T07:23:12;2.00;99.90
48162;DHT22;33950;48.154;16.316;2024-01-30T07:25:39;2.10;99.90
48162;DHT22;33950;48.154;16.316;2024-01-30T07:28:08;2.10;99.90
48162;DHT22;33950;48.154;16.316;2024-01-30T07:30:35;2.20;99.90
48162;DHT22;33950;48.154;16.316;2024-01-30T07:33:00;2.20;99.90
48162;DHT22;33950;48.154;16.316;2024-01-30T07:35:26;2.30;99.90
48162;DHT22;33950;48.154;16.316;2024-01-30T07:37:52;2.30;99.90
48162;DHT22;33950;48.154;16.316;2024-01-30T07:40:17;2.30;99.90
48162;DHT22;33950;48.154;16.316;2024-01-30T07:42:43;2.30;99.90
48162;DHT22;33950;48.154;16.316;2024-01-30T07:45:10;2.30;99.90
48162;DHT22;33950;48.154;16.316;2024-01-30T07:47:36;2.30;99.90
48162;DHT22;33950;48.154;16.316;2024-01-30T07:50:01;2.30;99.90
48162;DHT22;33950;48.154;16.316;2024-01-30T07:52:27;2.30;99.90
48162;DHT22;33950;48.154;16.316;2024-01-30T07:54:52;2.30;99.90
48162;DHT22;33950;48.154;16.316;2024-01-30T07:57:18;2.30;99.90
48162;DHT22;33950;48.154;16.316;2024-01-30T07:59:43;2.20;99.90
48162;DHT22;33950;48.154;16.316;2024-01-30T08:02:11;2.20;99.90
48162;DHT22;33950;48.154;16.316;2024-01-30T08:04:37;2.20;99.90
48162;DHT22;33950;48.154;16.316;2024-01-30T08:07:03;2.20;99.90
48162;DHT22;33950;48.154;16.316;2024-01-30T08:09:28;2.20;99.90
48162;DHT22;33950;48.154;16.316;2024-01-30T08:11:54;2.20;99.90
48162;DHT22;33950;48.154;16.316;2024-01-30T08:14:19;2.30;99.90
48162;DHT22;33950;48.154;16.316;2024-01-30T08:16:45;2.30;99.90
48162;DHT22;33950;48.154;16.316;2024-01-30T08:19:12;2.30;99.90
48162;DHT22;33950;48.154;16.316;2024-01-30T08:21:37;2.30;99.90
48162;DHT22;33950;48.154;16.316;2024-01-30T08:24:05;2.30;99.90
48162;DHT22;33950;48.154;16.316;2024-01-30T08:26:31;2.20;99.90
48162;DHT22;33950;48.154;16.316;2024-01-30T08:28:57;2.30;99.90
48162;DHT22;33950;48.154;16.316;2024-01-30T08:31:22;2.30;99.90
48162;DHT22;33950;48.154;16.316;2024-01-30T08:33:48;2.30;99.90
48162;DHT22;33950;48.154;16.316;2024-01-30T08:36:15;2.30;99.90
48162;DHT22;33950;48.154;16.316;2024-01-30T08:38:41;2.30;99.90
48162;DHT22;33950;48.154;16.316;2024-01-30T08:41:07;2.40;99.90
48162;DHT22;33950;48.154;16.316;2024-01-30T08:43:33;2.40;99.90
48162;DHT22;33950;48.154;16.316;2024-01-30T08:45:58;2.40;99.90
48162;DHT22;33950;48.154;16.316;2024-01-30T08:48:25;2.40;99.90
48162;DHT22;33950;48.154;16.316;2024-01-30T08:50:50;2.40;99.90
48162;DHT22;33950;48.154;16.316;2024-01-30T08:53:17;2.50;99.90
48162;DHT22;33950;48.154;16.316;2024-01-30T08:55:43;2.50;99.90
48162;DHT22;33950;48.154;16.316;2024-01-30T08:58:09;2.60;99.90
48162;DHT22;33950;48.154;16.316;2024-01-30T09:00:35;2.70;99.90
48162;DHT22;33950;48.154;16.316;2024-01-30T09:03:00;2.70;99.90
48162;DHT22;33950;48.154;16.316;2024-01-30T09:05:26;2.70;99.90
48162;DHT22;33950;48.154;16.316;2024-01-30T09:07:51;2.70;99.90
48162;DHT22;33950;48.154;16.316;2024-01-30T09:10:18;2.80;99.90
48162;DHT22;33950;48.154;16.316;2024-01-30T09:12:44;2.80;99.90
48162;DHT22;33950;48.154;16.316;2024-01-30T09:15:09;2.80;99.90
48162;DHT22;33950;48.154;16.316;2024-01-30T09:17:35;2.80;99.90
48162;DHT22;33950;48.154;16.316;2024-01-30T09:20:01;2.80;99.90
48162;DHT22;33950;48.154;16.316;2024-01-30T09:22:26;2.80;99.90
48162;DHT22;33950;48.154;16.316;2024-01-30T09:24:52;2.80;99.90
48162;DHT22;33950;48.154;16.316;2024-01-30T09:27:19;2.90;99.90
48162;DHT22;33950;48.154;16.316;2024-01-30T09:29:45;2.90;99.90
48162;DHT22;33950;48.154;16.316;2024-01-30T09:32:11;3.00;99.90
48162;DHT22;33950;48.154;16.316;2024-01-30T09:34:36;3.10;99.90
48162;DHT22;33950;48.154;16.316;2024-01-30T09:37:02;3.10;99.90
48162;DHT22;33950;48.154;16.316;2024-01-30T09:39:27;3.10;99.90
48162;DHT22;33950;48.154;16.316;2024-01-30T09:41:56;3.20;99.90
48162;DHT22;33950;48.154;16.316;2024-01-30T09:44:27;3.20;99.90
48162;DHT22;33950;48.154;16.316;2024-01-30T09:46:54;3.30;99.90
48162;DHT22;33950;48.154;16.316;2024-01-30T09:49:20;3.40;99.90
48162;DHT22;33950;48.154;16.316;2024-01-30T09:51:46;3.40;99.90
48162;DHT22;33950;48.154;16.316;2024-01-30T09:54:13;3.40;99.90
48162;DHT22;33950;48.154;16.316;2024-01-30T09:56:39;3.50;99.90
48162;DHT22;33950;48.154;16.316;2024-01-30T09:59:04;3.60;99.90
48162;DHT22;33950;48.154;16.316;2024-01-30T10:01:31;3.70;99.90
48162;DHT22;33950;48.154;16.316;2024-01-30T10:03:59;3.80;99.90
48162;DHT22;33950;48.154;16.316;2024-01-30T10:06:25;3.80;99.90
48162;DHT22;33950;48.154;16.316;2024-01-30T10:08:51;3.80;99.90
48162;DHT22;33950;48.154;16.316;2024-01-30T10:11:16;3.80;99.90
48162;DHT22;33950;48.154;16.316;2024-01-30T10:13:42;3.90;99.90
48162;DHT22;33950;48.154;16.316;2024-01-30T10:16:07;4.00;99.90
48162;DHT22;33950;48.154;16.316;2024-01-30T10:18:34;4.10;99.90
48162;DHT22;33950;48.154;16.316;2024-01-30T10:21:00;4.20;99.90
48162;DHT22;33950;48.154;16.316;2024-01-30T10:23:26;4.20;99.90
48162;DHT22;33950;48.154;16.316;2024-01-30T10:25:51;4.20;99.90
48162;DHT22;33950;48.154;16.316;2024-01-30T10:28:17;4.30;99.90
48162;DHT22;33950;48.154;16.316;2024-01-30T10:30:43;4.40;99.90
48162;DHT22;33950;48.154;16.316;2024-01-30T10:33:09;4.50;99.90
48162;DHT22;33950;48.154;16.316;2024-01-30T10:35:36;4.50;99.90
48162;DHT22;33950;48.154;16.316;2024-01-30T10:38:01;4.60;99.90
48162;DHT22;33950;48.154;16.316;2024-01-30T10:40:28;4.70;99.90
48162;DHT22;33950;48.154;16.316;2024-01-30T10:42:55;4.70;99.90
48162;DHT22;33950;48.154;16.316;2024-01-30T10:45:20;4.80;99.90
48162;DHT22;33950;48.154;16.316;2024-01-30T10:47:48;4.90;99.90
48162;DHT22;33950;48.154;16.316;2024-01-30T10:50:14;5.00;99.90
48162;DHT22;33950;48.154;16.316;2024-01-30T10:52:41;5.70;99.90
48162;DHT22;33950;48.154;16.316;2024-01-30T10:55:10;6.70;99.30
48162;DHT22;33950;48.154;16.316;2024-01-30T10:57:35;7.60;98.50
48162;DHT22;33950;48.154;16.316;2024-01-30T11:00:02;8.10;97.20
48162;DHT22;33950;48.154;16.316;2024-01-30T11:02:36;8.50;96.30
48162;DHT22;33950;48.154;16.316;2024-01-30T11:05:04;8.40;95.60
48162;DHT22;33950;48.154;16.316;2024-01-30T11:07:30;8.40;95.70
48162;DHT22;33950;48.154;16.316;2024-01-30T11:10:00;8.40;95.30
48162;DHT22;33950;48.154;16.316;2024-01-30T11:12:27;8.40;95.40
48162;DHT22;33950;48.154;16.316;2024-01-30T11:15:01;8.30;95.30
48162;DHT22;33950;48.154;16.316;2024-01-30T11:17:28;8.40;95.60
48162;DHT22;33950;48.154;16.316;2024-01-30T11:19:54;8.60;95.20
48162;DHT22;33950;48.154;16.316;2024-01-30T11:22:20;8.50;95.20
48162;DHT22;33950;48.154;16.316;2024-01-30T11:24:46;8.60;95.00
48162;DHT22;33950;48.154;16.316;2024-01-30T11:27:13;8.70;95.20
48162;DHT22;33950;48.154;16.316;2024-01-30T11:29:40;8.80;94.60
48162;DHT22;33950;48.154;16.316;2024-01-30T11:32:05;8.70;94.50
48162;DHT22;33950;48.154;16.316;2024-01-30T11:34:32;8.70;94.60
48162;DHT22;33950;48.154;16.316;2024-01-30T11:36:59;8.80;94.60
48162;DHT22;33950;48.154;16.316;2024-01-30T11:39:25;8.80;94.40
48162;DHT22;33950;48.154;16.316;2024-01-30T11:41:51;8.90;94.40
48162;DHT22;33950;48.154;16.316;2024-01-30T11:44:20;9.10;94.20
48162;DHT22;33950;48.154;16.316;2024-01-30T11:46:46;9.20;94.30
48162;DHT22;33950;48.154;16.316;2024-01-30T11:49:12;9.30;93.80
48162;DHT22;33950;48.154;16.316;2024-01-30T11:51:37;9.30;93.70
48162;DHT22;33950;48.154;16.316;2024-01-30T11:54:03;9.40;93.60
48162;DHT22;33950;48.154;16.316;2024-01-30T11:56:29;9.50;93.50
48162;DHT22;33950;48.154;16.316;2024-01-30T11:58:54;9.50;93.30
48162;DHT22;33950;48.154;16.316;2024-01-30T12:01:21;9.60;93.40
48162;DHT22;33950;48.154;16.316;2024-01-30T12:03:49;9.70;93.20
48162;DHT22;33950;48.154;16.316;2024-01-30T12:06:15;9.80;93.00
48162;DHT22;33950;48.154;16.316;2024-01-30T12:08:40;9.90;93.10
48162;DHT22;33950;48.154;16.316;2024-01-30T12:11:06;9.90;92.70
48162;DHT22;33950;48.154;16.316;2024-01-30T12:13:32;9.80;92.90
48162;DHT22;33950;48.154;16.316;2024-01-30T12:15:58;9.90;92.80
48162;DHT22;33950;48.154;16.316;2024-01-30T12:18:25;10.00;92.20
48162;DHT22;33950;48.154;16.316;2024-01-30T12:20:57;9.80;92.50
48162;DHT22;33950;48.154;16.316;2024-01-30T12:23:24;9.80;92.50
48162;DHT22;33950;48.154;16.316;2024-01-30T12:25:51;9.80;92.30
48162;DHT22;33950;48.154;16.316;2024-01-30T12:28:16;9.80;92.80
48162;DHT22;33950;48.154;16.316;2024-01-30T12:30:42;9.80;92.60
48162;DHT22;33950;48.154;16.316;2024-01-30T12:33:08;9.80;92.80
48162;DHT22;33950;48.154;16.316;2024-01-30T12:35:36;9.90;92.40
48162;DHT22;33950;48.154;16.316;2024-01-30T12:38:02;10.00;92.40
48162;DHT22;33950;48.154;16.316;2024-01-30T12:40:27;10.00;92.50
48162;DHT22;33950;48.154;16.316;2024-01-30T12:42:54;10.00;92.30
48162;DHT22;33950;48.154;16.316;2024-01-30T12:45:19;10.10;92.30
48162;DHT22;33950;48.154;16.316;2024-01-30T12:47:48;10.20;92.00
48162;DHT22;33950;48.154;16.316;2024-01-30T12:50:14;10.10;92.00
48162;DHT22;33950;48.154;16.316;2024-01-30T12:52:42;10.10;91.90
48162;DHT22;33950;48.154;16.316;2024-01-30T12:55:08;10.20;91.80
48162;DHT22;33950;48.154;16.316;2024-01-30T12:57:33;10.40;91.60
48162;DHT22;33950;48.154;16.316;2024-01-30T12:59:59;10.30;91.40
48162;DHT22;33950;48.154;16.316;2024-01-30T13:02:25;10.40;91.30
48162;DHT22;33950;48.154;16.316;2024-01-30T13:04:51;10.40;91.10
48162;DHT22;33950;48.154;16.316;2024-01-30T13:07:17;10.50;91.20
48162;DHT22;33950;48.154;16.316;2024-01-30T13:09:44;10.60;90.90
48162;DHT22;33950;48.154;16.316;2024-01-30T13:12:10;10.70;91.20
48162;DHT22;33950;48.154;16.316;2024-01-30T13:14:36;10.80;90.60
48162;DHT22;33950;48.154;16.316;2024-01-30T13:17:01;10.60;90.50
48162;DHT22;33950;48.154;16.316;2024-01-30T13:19:27;10.40;90.50
48162;DHT22;33950;48.154;16.316;2024-01-30T13:21:53;10.30;90.70
48162;DHT22;33950;48.154;16.316;2024-01-30T13:24:18;10.20;90.70
48162;DHT22;33950;48.154;16.316;2024-01-30T13:26:48;10.20;90.90
48162;DHT22;33950;48.154;16.316;2024-01-30T13:29:14;10.20;90.90
48162;DHT22;33950;48.154;16.316;2024-01-30T13:31:39;10.30;90.80
48162;DHT22;33950;48.154;16.316;2024-01-30T13:34:05;10.50;90.50
48162;DHT22;33950;48.154;16.316;2024-01-30T13:36:32;10.60;90.60
48162;DHT22;33950;48.154;16.316;2024-01-30T13:38:58;10.50;90.30
48162;DHT22;33950;48.154;16.316;2024-01-30T13:41:23;10.10;90.40
48162;DHT22;33950;48.154;16.316;2024-01-30T13:43:50;9.50;90.90
48162;DHT22;33950;48.154;16.316;2024-01-30T13:46:16;9.10;91.40
48162;DHT22;33950;48.154;16.316;2024-01-30T13:48:41;8.60;91.60
48162;DHT22;33950;48.154;16.316;2024-01-30T13:51:07;8.40;92.00
48162;DHT22;33950;48.154;16.316;2024-01-30T13:53:32;8.20;92.30
48162;DHT22;33950;48.154;16.316;2024-01-30T13:55:58;8.20;92.50
48162;DHT22;33950;48.154;16.316;2024-01-30T13:58:24;8.30;92.80
48162;DHT22;33950;48.154;16.316;2024-01-30T14:00:51;8.60;92.50
48162;DHT22;33950;48.154;16.316;2024-01-30T14:03:16;8.60;92.20
48162;DHT22;33950;48.154;16.316;2024-01-30T14:05:42;8.40;92.20
48162;DHT22;33950;48.154;16.316;2024-01-30T14:08:09;8.20;92.40
48162;DHT22;33950;48.154;16.316;2024-01-30T14:10:34;7.90;92.70
48162;DHT22;33950;48.154;16.316;2024-01-30T14:13:00;7.80;93.00
48162;DHT22;33950;48.154;16.316;2024-01-30T14:15:26;7.70;93.00
48162;DHT22;33950;48.154;16.316;2024-01-30T14:17:53;7.60;93.30
48162;DHT22;33950;48.154;16.316;2024-01-30T14:20:18;7.60;93.40
48162;DHT22;33950;48.154;16.316;2024-01-30T14:22:44;7.60;93.40
48162;DHT22;33950;48.154;16.316;2024-01-30T14:25:10;7.60;93.50
48162;DHT22;33950;48.154;16.316;2024-01-30T14:27:36;7.50;93.50
48162;DHT22;33950;48.154;16.316;2024-01-30T14:30:01;7.50;93.80
48162;DHT22;33950;48.154;16.316;2024-01-30T14:32:28;7.40;93.70
48162;DHT22;33950;48.154;16.316;2024-01-30T14:34:55;7.40;93.90
48162;DHT22;33950;48.154;16.316;2024-01-30T14:37:21;7.30;93.90
48162;DHT22;33950;48.154;16.316;2024-01-30T14:39:46;7.40;93.90
48162;DHT22;33950;48.154;16.316;2024-01-30T14:42:13;7.40;94.00
48162;DHT22;33950;48.154;16.316;2024-01-30T14:44:39;7.40;94.00
48162;DHT22;33950;48.154;16.316;2024-01-30T14:47:05;7.30;94.20
48162;DHT22;33950;48.154;16.316;2024-01-30T14:49:31;7.40;94.20
48162;DHT22;33950;48.154;16.316;2024-01-30T14:51:58;7.40;94.20
48162;DHT22;33950;48.154;16.316;2024-01-30T14:54:24;7.30;94.20
48162;DHT22;33950;48.154;16.316;2024-01-30T14:56:49;7.40;94.20
48162;DHT22;33950;48.154;16.316;2024-01-30T14:59:15;7.30;94.20
48162;DHT22;33950;48.154;16.316;2024-01-30T15:01:41;7.30;94.30
48162;DHT22;33950;48.154;16.316;2024-01-30T15:04:07;7.20;94.40
48162;DHT22;33950;48.154;16.316;2024-01-30T15:06:32;7.30;94.50
48162;DHT22;33950;48.154;16.316;2024-01-30T15:08:59;7.20;94.50
48162;DHT22;33950;48.154;16.316;2024-01-30T15:11:25;7.20;94.70
48162;DHT22;33950;48.154;16.316;2024-01-30T15:13:50;7.20;94.70
48162;DHT22;33950;48.154;16.316;2024-01-30T15:16:16;7.10;94.70
48162;DHT22;33950;48.154;16.316;2024-01-30T15:18:42;7.10;94.80
48162;DHT22;33950;48.154;16.316;2024-01-30T15:21:07;7.10;94.80